LPMR

Monte Real Airport

Portugal
TAF LPMR 242303Z 2500/2524 VRB02KT CAVOK BECMG 2515/2517 34008KT BECMG 2519/2521 VRB02KT
Issued Valid From Valid To
Sep-24 @ 23:03 UTC
(3 hours ago)
Sep-25 @ 00:00 UTC
(2 hours ago)
Sep-26 @ 00:00 UTC
(in 22 hours)
Sep-25 @ 00:00 to Sep-25 @ 15:00
TAF LPMR 242303Z 2500/2524 VRB02KT CAVOK
Wind Visibility Clouds Conditions
Variable at 2 knots 10,000+ meters
  • No significant clouds
Becoming Sep-25 @ 15:00 to Sep-25 @ 19:00
BECMG 2515/2517 34008KT
Wind Visibility Clouds Conditions
340° at 8 knots 10,000+ meters
  • No significant clouds
Becoming Sep-25 @ 19:00 to Sep-26 @ 00:00
BECMG 2519/2521 VRB02KT
Wind Visibility Clouds Conditions
Variable at 2 knots 10,000+ meters
  • No significant clouds
TAF LPMR 242303Z 2500/2524 VRB02KT CAVOK BECMG 2515/2517 34008KT BECMG 2519/2521 VRB02KT
Issued Sep-24 @ 23:03 UTC
(3 hours ago)
Valid From Sep-25 @ 00:00 UTC
(2 hours ago)
Valid To Sep-26 @ 00:00 UTC
(in 22 hours)
Sep-25 @ 00:00 - Sep-25 @ 15:00
Wind Visibility
Variable at 2 knots 10,000+ meters
Clouds
  • No significant clouds
Conditions
Becoming Sep-25 @ 15:00 - Sep-25 @ 19:00
Wind Visibility
340° at 8 knots 10,000+ meters
Clouds
  • No significant clouds
Conditions
Becoming Sep-25 @ 19:00 - Sep-26 @ 00:00
Wind Visibility
Variable at 2 knots 10,000+ meters
Clouds
  • No significant clouds
Conditions